sensor_id;sensor_type;location;lat;lon;timestamp;temperature;humidity
7155;DHT22;3619;53.784;10.440;2023-04-25T00:00:42;7.50;99.90
7155;DHT22;3619;53.784;10.440;2023-04-25T00:03:10;7.50;99.90
7155;DHT22;3619;53.784;10.440;2023-04-25T00:05:37;7.50;99.90
7155;DHT22;3619;53.784;10.440;2023-04-25T00:08:04;7.50;99.90
7155;DHT22;3619;53.784;10.440;2023-04-25T00:10:31;7.50;99.90
7155;DHT22;3619;53.784;10.440;2023-04-25T00:12:58;7.50;99.90
7155;DHT22;3619;53.784;10.440;2023-04-25T00:15:27;7.50;99.90
7155;DHT22;3619;53.784;10.440;2023-04-25T00:17:56;7.40;99.90
7155;DHT22;3619;53.784;10.440;2023-04-25T00:20:24;7.50;99.90
7155;DHT22;3619;53.784;10.440;2023-04-25T00:22:51;7.40;99.90
7155;DHT22;3619;53.784;10.440;2023-04-25T00:25:18;7.40;99.90
7155;DHT22;3619;53.784;10.440;2023-04-25T00:27:45;7.40;99.90
7155;DHT22;3619;53.784;10.440;2023-04-25T00:30:13;7.40;99.90
7155;DHT22;3619;53.784;10.440;2023-04-25T00:32:40;7.40;99.90
7155;DHT22;3619;53.784;10.440;2023-04-25T00:35:07;7.40;99.90
7155;DHT22;3619;53.784;10.440;2023-04-25T00:37:35;7.40;99.90
7155;DHT22;3619;53.784;10.440;2023-04-25T00:40:05;7.40;99.90
7155;DHT22;3619;53.784;10.440;2023-04-25T00:42:34;7.30;99.90
7155;DHT22;3619;53.784;10.440;2023-04-25T00:45:01;7.30;99.90
7155;DHT22;3619;53.784;10.440;2023-04-25T00:47:30;7.20;99.90
7155;DHT22;3619;53.784;10.440;2023-04-25T00:49:58;7.20;99.90
7155;DHT22;3619;53.784;10.440;2023-04-25T00:52:25;7.10;99.90
7155;DHT22;3619;53.784;10.440;2023-04-25T00:54:53;7.10;99.90
7155;DHT22;3619;53.784;10.440;2023-04-25T00:57:20;7.10;99.90
7155;DHT22;3619;53.784;10.440;2023-04-25T00:59:47;7.10;99.90
7155;DHT22;3619;53.784;10.440;2023-04-25T01:02:14;7.10;99.90
7155;DHT22;3619;53.784;10.440;2023-04-25T01:04:41;7.10;99.90
7155;DHT22;3619;53.784;10.440;2023-04-25T01:07:08;7.10;99.90
7155;DHT22;3619;53.784;10.440;2023-04-25T01:09:36;7.00;99.90
7155;DHT22;3619;53.784;10.440;2023-04-25T01:12:04;7.00;99.90
7155;DHT22;3619;53.784;10.440;2023-04-25T01:14:31;7.00;99.90
7155;DHT22;3619;53.784;10.440;2023-04-25T01:16:58;7.00;99.90
7155;DHT22;3619;53.784;10.440;2023-04-25T01:19:25;7.00;99.90
7155;DHT22;3619;53.784;10.440;2023-04-25T01:21:53;6.90;99.90
7155;DHT22;3619;53.784;10.440;2023-04-25T01:24:21;6.90;99.90
7155;DHT22;3619;53.784;10.440;2023-04-25T01:26:50;6.90;99.90
7155;DHT22;3619;53.784;10.440;2023-04-25T01:29:18;6.90;99.90
7155;DHT22;3619;53.784;10.440;2023-04-25T01:31:46;6.90;99.90
7155;DHT22;3619;53.784;10.440;2023-04-25T01:34:13;6.90;99.90
7155;DHT22;3619;53.784;10.440;2023-04-25T01:36:40;6.90;99.90
7155;DHT22;3619;53.784;10.440;2023-04-25T01:39:09;6.90;99.90
7155;DHT22;3619;53.784;10.440;2023-04-25T01:41:36;6.90;99.90
7155;DHT22;3619;53.784;10.440;2023-04-25T01:44:03;6.90;99.90
7155;DHT22;3619;53.784;10.440;2023-04-25T01:46:31;6.90;99.90
7155;DHT22;3619;53.784;10.440;2023-04-25T01:48:58;6.90;99.90
7155;DHT22;3619;53.784;10.440;2023-04-25T01:51:25;6.90;99.90
7155;DHT22;3619;53.784;10.440;2023-04-25T01:53:52;6.80;99.90
7155;DHT22;3619;53.784;10.440;2023-04-25T01:56:20;6.80;99.90
7155;DHT22;3619;53.784;10.440;2023-04-25T01:58:47;6.70;99.90
7155;DHT22;3619;53.784;10.440;2023-04-25T02:01:13;6.80;99.90
7155;DHT22;3619;53.784;10.440;2023-04-25T02:03:40;6.70;99.90
7155;DHT22;3619;53.784;10.440;2023-04-25T02:06:07;6.70;99.90
7155;DHT22;3619;53.784;10.440;2023-04-25T02:08:34;6.70;99.90
7155;DHT22;3619;53.784;10.440;2023-04-25T02:11:02;6.60;99.90
7155;DHT22;3619;53.784;10.440;2023-04-25T02:13:31;6.60;99.90
7155;DHT22;3619;53.784;10.440;2023-04-25T02:15:57;6.50;99.90
7155;DHT22;3619;53.784;10.440;2023-04-25T02:18:24;6.50;99.90
7155;DHT22;3619;53.784;10.440;2023-04-25T02:20:51;6.50;99.90
7155;DHT22;3619;53.784;10.440;2023-04-25T02:23:18;6.50;99.90
7155;DHT22;3619;53.784;10.440;2023-04-25T02:25:45;6.50;99.90
7155;DHT22;3619;53.784;10.440;2023-04-25T02:28:12;6.50;99.90
7155;DHT22;3619;53.784;10.440;2023-04-25T02:30:40;6.40;99.90
7155;DHT22;3619;53.784;10.440;2023-04-25T02:33:07;6.40;99.90
7155;DHT22;3619;53.784;10.440;2023-04-25T02:35:34;6.40;99.90
7155;DHT22;3619;53.784;10.440;2023-04-25T02:38:00;6.30;99.90
7155;DHT22;3619;53.784;10.440;2023-04-25T02:40:27;6.30;99.90
7155;DHT22;3619;53.784;10.440;2023-04-25T02:42:54;6.30;99.90
7155;DHT22;3619;53.784;10.440;2023-04-25T02:45:21;6.30;99.90
7155;DHT22;3619;53.784;10.440;2023-04-25T02:47:49;6.20;99.90
7155;DHT22;3619;53.784;10.440;2023-04-25T02:50:16;6.20;99.90
7155;DHT22;3619;53.784;10.440;2023-04-25T02:52:44;6.20;99.90
7155;DHT22;3619;53.784;10.440;2023-04-25T02:55:11;6.10;99.90
7155;DHT22;3619;53.784;10.440;2023-04-25T02:57:38;6.00;99.90
7155;DHT22;3619;53.784;10.440;2023-04-25T03:00:06;6.00;99.90
7155;DHT22;3619;53.784;10.440;2023-04-25T03:02:33;5.90;99.90
7155;DHT22;3619;53.784;10.440;2023-04-25T03:05:01;5.80;99.90
7155;DHT22;3619;53.784;10.440;2023-04-25T03:07:28;5.80;99.90
7155;DHT22;3619;53.784;10.440;2023-04-25T03:09:55;5.80;99.90
7155;DHT22;3619;53.784;10.440;2023-04-25T03:12:22;5.70;99.90
7155;DHT22;3619;53.784;10.440;2023-04-25T03:14:48;5.70;99.90
7155;DHT22;3619;53.784;10.440;2023-04-25T03:17:15;5.70;99.90
7155;DHT22;3619;53.784;10.440;2023-04-25T03:19:42;5.70;99.90
7155;DHT22;3619;53.784;10.440;2023-04-25T03:22:10;5.70;99.90
7155;DHT22;3619;53.784;10.440;2023-04-25T03:24:37;5.60;99.90
7155;DHT22;3619;53.784;10.440;2023-04-25T03:27:04;5.60;99.90
7155;DHT22;3619;53.784;10.440;2023-04-25T03:29:30;5.50;99.90
7155;DHT22;3619;53.784;10.440;2023-04-25T03:31:57;5.50;99.90
7155;DHT22;3619;53.784;10.440;2023-04-25T03:34:24;5.40;99.90
7155;DHT22;3619;53.784;10.440;2023-04-25T03:36:51;5.40;99.90
7155;DHT22;3619;53.784;10.440;2023-04-25T03:39:19;5.50;99.90
7155;DHT22;3619;53.784;10.440;2023-04-25T03:41:46;5.50;99.90
7155;DHT22;3619;53.784;10.440;2023-04-25T03:44:13;5.50;99.90
7155;DHT22;3619;53.784;10.440;2023-04-25T03:46:40;5.50;99.90
7155;DHT22;3619;53.784;10.440;2023-04-25T03:49:07;5.50;99.90
7155;DHT22;3619;53.784;10.440;2023-04-25T03:51:33;5.50;99.90
7155;DHT22;3619;53.784;10.440;2023-04-25T03:54:01;5.50;99.90
7155;DHT22;3619;53.784;10.440;2023-04-25T03:56:30;5.40;99.90
7155;DHT22;3619;53.784;10.440;2023-04-25T03:58:57;5.30;99.90
7155;DHT22;3619;53.784;10.440;2023-04-25T04:01:23;5.30;99.90
7155;DHT22;3619;53.784;10.440;2023-04-25T04:03:50;5.30;99.90
7155;DHT22;3619;53.784;10.440;2023-04-25T04:06:17;5.20;99.90
7155;DHT22;3619;53.784;10.440;2023-04-25T04:08:46;5.30;99.90
7155;DHT22;3619;53.784;10.440;2023-04-25T04:11:13;5.20;99.90
7155;DHT22;3619;53.784;10.440;2023-04-25T04:13:41;5.20;99.90
7155;DHT22;3619;53.784;10.440;2023-04-25T04:16:08;5.30;99.90
7155;DHT22;3619;53.784;10.440;2023-04-25T04:18:35;5.20;99.90
7155;DHT22;3619;53.784;10.440;2023-04-25T04:21:02;5.20;99.90
7155;DHT22;3619;53.784;10.440;2023-04-25T04:23:29;5.20;99.90
7155;DHT22;3619;53.784;10.440;2023-04-25T04:25:56;5.20;99.90
7155;DHT22;3619;53.784;10.440;2023-04-25T04:28:23;5.20;99.90
7155;DHT22;3619;53.784;10.440;2023-04-25T04:30:52;5.20;99.90
7155;DHT22;3619;53.784;10.440;2023-04-25T04:33:18;5.20;99.90
7155;DHT22;3619;53.784;10.440;2023-04-25T04:35:46;5.20;99.90
7155;DHT22;3619;53.784;10.440;2023-04-25T04:38:14;5.30;99.90
7155;DHT22;3619;53.784;10.440;2023-04-25T04:40:41;5.40;99.90
7155;DHT22;3619;53.784;10.440;2023-04-25T04:43:08;5.40;99.90
7155;DHT22;3619;53.784;10.440;2023-04-25T04:45:35;5.40;99.90
7155;DHT22;3619;53.784;10.440;2023-04-25T04:48:05;5.40;99.90
7155;DHT22;3619;53.784;10.440;2023-04-25T04:50:32;5.40;99.90
7155;DHT22;3619;53.784;10.440;2023-04-25T04:52:59;5.40;99.90
7155;DHT22;3619;53.784;10.440;2023-04-25T04:55:26;5.40;99.90
7155;DHT22;3619;53.784;10.440;2023-04-25T04:57:53;5.40;99.90
7155;DHT22;3619;53.784;10.440;2023-04-25T05:00:19;5.40;99.90
7155;DHT22;3619;53.784;10.440;2023-04-25T05:02:47;5.50;99.90
7155;DHT22;3619;53.784;10.440;2023-04-25T05:05:16;5.50;99.90
7155;DHT22;3619;53.784;10.440;2023-04-25T05:07:42;5.50;99.90
7155;DHT22;3619;53.784;10.440;2023-04-25T05:10:10;5.50;99.90
7155;DHT22;3619;53.784;10.440;2023-04-25T05:12:37;5.60;99.90
7155;DHT22;3619;53.784;10.440;2023-04-25T05:15:04;5.60;99.90
7155;DHT22;3619;53.784;10.440;2023-04-25T05:17:31;5.60;99.90
7155;DHT22;3619;53.784;10.440;2023-04-25T05:19:58;5.60;99.90
7155;DHT22;3619;53.784;10.440;2023-04-25T05:22:26;5.70;99.90
7155;DHT22;3619;53.784;10.440;2023-04-25T05:24:53;5.80;99.90
7155;DHT22;3619;53.784;10.440;2023-04-25T05:27:20;5.80;99.90
7155;DHT22;3619;53.784;10.440;2023-04-25T05:29:47;5.80;99.90
7155;DHT22;3619;53.784;10.440;2023-04-25T05:32:14;5.90;99.90
7155;DHT22;3619;53.784;10.440;2023-04-25T05:34:40;5.90;99.90
7155;DHT22;3619;53.784;10.440;2023-04-25T05:37:07;5.90;99.90
7155;DHT22;3619;53.784;10.440;2023-04-25T05:39:36;5.80;99.90
7155;DHT22;3619;53.784;10.440;2023-04-25T05:42:03;5.80;99.90
7155;DHT22;3619;53.784;10.440;2023-04-25T05:44:30;5.80;99.90
7155;DHT22;3619;53.784;10.440;2023-04-25T05:46:57;5.80;99.90
7155;DHT22;3619;53.784;10.440;2023-04-25T05:49:23;5.80;99.90
7155;DHT22;3619;53.784;10.440;2023-04-25T05:51:50;5.80;99.90
7155;DHT22;3619;53.784;10.440;2023-04-25T05:54:17;5.80;99.90
7155;DHT22;3619;53.784;10.440;2023-04-25T05:56:46;5.80;99.90
7155;DHT22;3619;53.784;10.440;2023-04-25T05:59:12;5.80;99.90
7155;DHT22;3619;53.784;10.440;2023-04-25T06:01:39;5.80;99.90
7155;DHT22;3619;53.784;10.440;2023-04-25T06:04:08;5.80;99.90
7155;DHT22;3619;53.784;10.440;2023-04-25T06:06:35;5.80;99.90
7155;DHT22;3619;53.784;10.440;2023-04-25T06:09:02;5.80;99.90
7155;DHT22;3619;53.784;10.440;2023-04-25T06:11:28;5.90;99.90
7155;DHT22;3619;53.784;10.440;2023-04-25T06:13:56;5.90;99.90
7155;DHT22;3619;53.784;10.440;2023-04-25T06:16:23;5.90;99.90
7155;DHT22;3619;53.784;10.440;2023-04-25T06:18:51;6.00;99.90
7155;DHT22;3619;53.784;10.440;2023-04-25T06:21:18;6.10;99.90
7155;DHT22;3619;53.784;10.440;2023-04-25T06:23:45;6.10;99.90
7155;DHT22;3619;53.784;10.440;2023-04-25T06:26:13;6.20;99.90
7155;DHT22;3619;53.784;10.440;2023-04-25T06:28:40;6.20;99.90
7155;DHT22;3619;53.784;10.440;2023-04-25T06:31:08;6.20;99.90
7155;DHT22;3619;53.784;10.440;2023-04-25T06:33:35;6.30;99.90
7155;DHT22;3619;53.784;10.440;2023-04-25T06:36:02;6.30;99.90
7155;DHT22;3619;53.784;10.440;2023-04-25T06:38:29;6.50;99.90
7155;DHT22;3619;53.784;10.440;2023-04-25T06:40:57;6.50;99.90
7155;DHT22;3619;53.784;10.440;2023-04-25T06:43:23;6.60;99.90
7155;DHT22;3619;53.784;10.440;2023-04-25T06:45:51;6.50;99.90
7155;DHT22;3619;53.784;10.440;2023-04-25T06:48:19;6.50;99.90
7155;DHT22;3619;53.784;10.440;2023-04-25T06:50:46;6.40;99.90
7155;DHT22;3619;53.784;10.440;2023-04-25T06:53:12;6.40;99.90
7155;DHT22;3619;53.784;10.440;2023-04-25T06:55:39;6.40;99.90
7155;DHT22;3619;53.784;10.440;2023-04-25T06:58:06;6.50;99.90
7155;DHT22;3619;53.784;10.440;2023-04-25T07:00:33;6.60;99.90
7155;DHT22;3619;53.784;10.440;2023-04-25T07:03:00;6.70;99.90
7155;DHT22;3619;53.784;10.440;2023-04-25T07:05:28;6.90;99.90
7155;DHT22;3619;53.784;10.440;2023-04-25T07:07:55;7.00;99.90
7155;DHT22;3619;53.784;10.440;2023-04-25T07:10:22;7.10;99.90
7155;DHT22;3619;53.784;10.440;2023-04-25T07:12:51;7.10;99.90
7155;DHT22;3619;53.784;10.440;2023-04-25T07:15:17;7.10;99.90
7155;DHT22;3619;53.784;10.440;2023-04-25T07:17:44;7.00;99.90
7155;DHT22;3619;53.784;10.440;2023-04-25T07:20:11;7.00;99.90
7155;DHT22;3619;53.784;10.440;2023-04-25T07:22:39;7.10;99.90
7155;DHT22;3619;53.784;10.440;2023-04-25T07:25:07;7.20;99.90
7155;DHT22;3619;53.784;10.440;2023-04-25T07:27:34;7.30;99.90
7155;DHT22;3619;53.784;10.440;2023-04-25T07:30:01;7.50;99.90
7155;DHT22;3619;53.784;10.440;2023-04-25T07:32:27;7.70;99.90
7155;DHT22;3619;53.784;10.440;2023-04-25T07:34:54;7.80;99.90
7155;DHT22;3619;53.784;10.440;2023-04-25T07:37:21;7.80;99.90
7155;DHT22;3619;53.784;10.440;2023-04-25T07:39:49;7.80;99.90
7155;DHT22;3619;53.784;10.440;2023-04-25T07:42:16;7.80;99.90
7155;DHT22;3619;53.784;10.440;2023-04-25T07:44:43;7.70;99.90
7155;DHT22;3619;53.784;10.440;2023-04-25T07:47:10;7.60;99.90
7155;DHT22;3619;53.784;10.440;2023-04-25T07:49:37;7.70;99.90
7155;DHT22;3619;53.784;10.440;2023-04-25T07:52:05;7.70;99.90
7155;DHT22;3619;53.784;10.440;2023-04-25T07:54:32;7.60;99.90
7155;DHT22;3619;53.784;10.440;2023-04-25T07:57:00;7.80;99.90
7155;DHT22;3619;53.784;10.440;2023-04-25T07:59:27;7.90;99.90
7155;DHT22;3619;53.784;10.440;2023-04-25T08:01:54;8.00;99.90
7155;DHT22;3619;53.784;10.440;2023-04-25T08:04:22;8.00;99.90
7155;DHT22;3619;53.784;10.440;2023-04-25T08:06:49;7.90;99.90
7155;DHT22;3619;53.784;10.440;2023-04-25T08:09:16;8.10;99.90
7155;DHT22;3619;53.784;10.440;2023-04-25T08:11:43;8.10;99.90
7155;DHT22;3619;53.784;10.440;2023-04-25T08:14:11;7.90;99.90
7155;DHT22;3619;53.784;10.440;2023-04-25T08:16:38;7.90;99.90
7155;DHT22;3619;53.784;10.440;2023-04-25T08:19:05;8.00;99.90
7155;DHT22;3619;53.784;10.440;2023-04-25T08:21:32;8.20;99.90
7155;DHT22;3619;53.784;10.440;2023-04-25T08:23:59;8.30;99.90
7155;DHT22;3619;53.784;10.440;2023-04-25T08:26:26;8.60;99.90
7155;DHT22;3619;53.784;10.440;2023-04-25T08:28:52;8.80;99.90
7155;DHT22;3619;53.784;10.440;2023-04-25T08:31:21;9.00;99.90
7155;DHT22;3619;53.784;10.440;2023-04-25T08:33:47;9.00;99.90
7155;DHT22;3619;53.784;10.440;2023-04-25T08:36:15;9.20;99.90
7155;DHT22;3619;53.784;10.440;2023-04-25T08:38:42;9.20;99.90
7155;DHT22;3619;53.784;10.440;2023-04-25T08:41:11;8.90;99.90
7155;DHT22;3619;53.784;10.440;2023-04-25T08:43:42;8.60;99.90
7155;DHT22;3619;53.784;10.440;2023-04-25T08:46:10;8.60;99.90
7155;DHT22;3619;53.784;10.440;2023-04-25T08:48:40;8.60;99.90
7155;DHT22;3619;53.784;10.440;2023-04-25T08:51:07;8.40;99.90
7155;DHT22;3619;53.784;10.440;2023-04-25T08:53:35;8.40;99.90
7155;DHT22;3619;53.784;10.440;2023-04-25T08:56:02;8.40;99.90
7155;DHT22;3619;53.784;10.440;2023-04-25T08:58:29;8.50;99.90
7155;DHT22;3619;53.784;10.440;2023-04-25T09:00:56;8.70;99.90
7155;DHT22;3619;53.784;10.440;2023-04-25T09:03:23;9.00;99.90
7155;DHT22;3619;53.784;10.440;2023-04-25T09:05:55;9.40;99.90
7155;DHT22;3619;53.784;10.440;2023-04-25T09:08:24;9.70;99.90
7155;DHT22;3619;53.784;10.440;2023-04-25T09:10:53;10.20;99.90
7155;DHT22;3619;53.784;10.440;2023-04-25T09:13:25;9.70;99.90
7155;DHT22;3619;53.784;10.440;2023-04-25T09:15:53;9.50;99.90
7155;DHT22;3619;53.784;10.440;2023-04-25T09:18:24;9.30;99.90
7155;DHT22;3619;53.784;10.440;2023-04-25T09:20:56;9.40;99.90
7155;DHT22;3619;53.784;10.440;2023-04-25T09:23:25;9.60;99.90
7155;DHT22;3619;53.784;10.440;2023-04-25T09:25:57;9.70;99.90
7155;DHT22;3619;53.784;10.440;2023-04-25T09:28:25;9.40;99.90
7155;DHT22;3619;53.784;10.440;2023-04-25T09:30:55;9.50;99.90
7155;DHT22;3619;53.784;10.440;2023-04-25T09:33:28;9.40;99.90
7155;DHT22;3619;53.784;10.440;2023-04-25T09:36:02;9.40;99.90
7155;DHT22;3619;53.784;10.440;2023-04-25T09:38:31;9.30;99.90
7155;DHT22;3619;53.784;10.440;2023-04-25T09:40:58;9.10;99.90
7155;DHT22;3619;53.784;10.440;2023-04-25T09:43:26;9.10;99.90
7155;DHT22;3619;53.784;10.440;2023-04-25T09:45:54;9.30;99.90
7155;DHT22;3619;53.784;10.440;2023-04-25T09:48:24;9.90;99.90
7155;DHT22;3619;53.784;10.440;2023-04-25T09:51:09;10.10;99.90
7155;DHT22;3619;53.784;10.440;2023-04-25T09:53:37;9.70;99.90
7155;DHT22;3619;53.784;10.440;2023-04-25T09:56:05;9.40;99.90
7155;DHT22;3619;53.784;10.440;2023-04-25T09:58:33;9.10;99.90
7155;DHT22;3619;53.784;10.440;2023-04-25T10:01:02;8.90;99.90
7155;DHT22;3619;53.784;10.440;2023-04-25T10:03:30;9.00;99.90
7155;DHT22;3619;53.784;10.440;2023-04-25T10:06:00;9.40;99.90
7155;DHT22;3619;53.784;10.440;2023-04-25T10:08:32;9.50;99.90
7155;DHT22;3619;53.784;10.440;2023-04-25T10:11:00;9.50;99.90
7155;DHT22;3619;53.784;10.440;2023-04-25T10:13:29;9.60;99.90
7155;DHT22;3619;53.784;10.440;2023-04-25T10:15:57;10.00;99.90
7155;DHT22;3619;53.784;10.440;2023-04-25T10:18:25;10.30;99.90
7155;DHT22;3619;53.784;10.440;2023-04-25T10:20:56;10.50;99.90
7155;DHT22;3619;53.784;10.440;2023-04-25T10:23:27;10.10;99.90
7155;DHT22;3619;53.784;10.440;2023-04-25T10:25:56;10.10;99.90
7155;DHT22;3619;53.784;10.440;2023-04-25T10:28:23;10.30;99.90
7155;DHT22;3619;53.784;10.440;2023-04-25T10:31:07;10.10;99.90
7155;DHT22;3619;53.784;10.440;2023-04-25T10:33:35;9.60;99.90
7155;DHT22;3619;53.784;10.440;2023-04-25T10:36:16;9.10;99.90
7155;DHT22;3619;53.784;10.440;2023-04-25T10:38:45;8.50;99.90
7155;DHT22;3619;53.784;10.440;2023-04-25T10:41:14;7.30;99.90
7155;DHT22;3619;53.784;10.440;2023-04-25T10:43:41;6.70;99.90
7155;DHT22;3619;53.784;10.440;2023-04-25T10:46:19;6.40;99.90
7155;DHT22;3619;53.784;10.440;2023-04-25T10:48:49;6.30;99.90
7155;DHT22;3619;53.784;10.440;2023-04-25T10:51:21;6.40;99.90
7155;DHT22;3619;53.784;10.440;2023-04-25T10:53:58;6.50;99.90
7155;DHT22;3619;53.784;10.440;2023-04-25T10:56:29;6.90;99.90
7155;DHT22;3619;53.784;10.440;2023-04-25T10:59:07;7.10;99.90
7155;DHT22;3619;53.784;10.440;2023-04-25T11:01:37;7.40;99.90
7155;DHT22;3619;53.784;10.440;2023-04-25T11:04:04;7.70;99.90
7155;DHT22;3619;53.784;10.440;2023-04-25T11:06:37;8.10;99.90
7155;DHT22;3619;53.784;10.440;2023-04-25T11:09:10;8.50;99.90
7155;DHT22;3619;53.784;10.440;2023-04-25T11:11:40;8.90;99.90
7155;DHT22;3619;53.784;10.440;2023-04-25T11:14:13;9.20;99.90
7155;DHT22;3619;53.784;10.440;2023-04-25T11:16:44;9.40;99.90
7155;DHT22;3619;53.784;10.440;2023-04-25T11:19:11;9.30;99.90
7155;DHT22;3619;53.784;10.440;2023-04-25T11:21:38;9.60;99.90
7155;DHT22;3619;53.784;10.440;2023-04-25T11:24:05;9.70;99.90
7155;DHT22;3619;53.784;10.440;2023-04-25T11:26:32;10.00;99.90
7155;DHT22;3619;53.784;10.440;2023-04-25T11:29:00;10.60;99.90
7155;DHT22;3619;53.784;10.440;2023-04-25T11:31:29;10.60;99.90
7155;DHT22;3619;53.784;10.440;2023-04-25T11:33:59;10.70;99.90
7155;DHT22;3619;53.784;10.440;2023-04-25T11:36:26;10.50;99.90
7155;DHT22;3619;53.784;10.440;2023-04-25T11:38:54;10.30;99.90
7155;DHT22;3619;53.784;10.440;2023-04-25T11:41:20;10.00;99.90
7155;DHT22;3619;53.784;10.440;2023-04-25T11:43:54;9.50;99.90
7155;DHT22;3619;53.784;10.440;2023-04-25T11:46:23;9.10;99.90
7155;DHT22;3619;53.784;10.440;2023-04-25T11:48:50;8.60;99.90
7155;DHT22;3619;53.784;10.440;2023-04-25T11:51:17;7.90;99.90
7155;DHT22;3619;53.784;10.440;2023-04-25T11:53:44;7.40;99.90
7155;DHT22;3619;53.784;10.440;2023-04-25T11:56:12;7.10;99.90
7155;DHT22;3619;53.784;10.440;2023-04-25T11:58:55;7.00;99.90
7155;DHT22;3619;53.784;10.440;2023-04-25T12:01:28;7.00;99.90
7155;DHT22;3619;53.784;10.440;2023-04-25T12:03:55;7.20;99.90
7155;DHT22;3619;53.784;10.440;2023-04-25T12:06:26;7.30;99.90
7155;DHT22;3619;53.784;10.440;2023-04-25T12:09:01;7.50;99.90
7155;DHT22;3619;53.784;10.440;2023-04-25T12:11:29;7.70;99.90
7155;DHT22;3619;53.784;10.440;2023-04-25T12:14:01;7.90;99.90
7155;DHT22;3619;53.784;10.440;2023-04-25T12:16:30;8.10;99.90
7155;DHT22;3619;53.784;10.440;2023-04-25T12:18:56;8.60;99.90
7155;DHT22;3619;53.784;10.440;2023-04-25T12:21:29;8.80;99.90
7155;DHT22;3619;53.784;10.440;2023-04-25T12:24:10;8.80;99.90
7155;DHT22;3619;53.784;10.440;2023-04-25T12:26:51;9.20;99.90
7155;DHT22;3619;53.784;10.440;2023-04-25T12:29:19;9.60;99.90
7155;DHT22;3619;53.784;10.440;2023-04-25T12:31:48;10.10;99.90
7155;DHT22;3619;53.784;10.440;2023-04-25T12:34:15;10.10;99.90
7155;DHT22;3619;53.784;10.440;2023-04-25T12:36:42;10.10;99.90
7155;DHT22;3619;53.784;10.440;2023-04-25T12:39:08;10.20;99.90
7155;DHT22;3619;53.784;10.440;2023-04-25T12:41:41;10.40;99.90
7155;DHT22;3619;53.784;10.440;2023-04-25T12:44:10;10.40;99.90
7155;DHT22;3619;53.784;10.440;2023-04-25T12:46:38;10.90;99.90
7155;DHT22;3619;53.784;10.440;2023-04-25T12:49:06;10.60;99.90
7155;DHT22;3619;53.784;10.440;2023-04-25T12:51:34;10.00;99.90
7155;DHT22;3619;53.784;10.440;2023-04-25T12:54:01;9.30;99.90
7155;DHT22;3619;53.784;10.440;2023-04-25T12:56:28;9.10;99.90
7155;DHT22;3619;53.784;10.440;2023-04-25T12:58:55;9.10;99.90
7155;DHT22;3619;53.784;10.440;2023-04-25T13:01:22;9.00;99.90
7155;DHT22;3619;53.784;10.440;2023-04-25T13:03:49;9.00;99.90
7155;DHT22;3619;53.784;10.440;2023-04-25T13:06:18;9.50;99.90
7155;DHT22;3619;53.784;10.440;2023-04-25T13:08:45;10.10;99.90
7155;DHT22;3619;53.784;10.440;2023-04-25T13:11:12;9.80;99.90
7155;DHT22;3619;53.784;10.440;2023-04-25T13:13:40;9.30;99.90
7155;DHT22;3619;53.784;10.440;2023-04-25T13:16:08;9.10;99.90
7155;DHT22;3619;53.784;10.440;2023-04-25T13:18:35;9.40;99.90
7155;DHT22;3619;53.784;10.440;2023-04-25T13:21:04;9.00;99.90
7155;DHT22;3619;53.784;10.440;2023-04-25T13:23:32;9.30;99.90
7155;DHT22;3619;53.784;10.440;2023-04-25T13:25:59;9.60;99.90
7155;DHT22;3619;53.784;10.440;2023-04-25T13:28:27;9.80;99.90
7155;DHT22;3619;53.784;10.440;2023-04-25T13:30:54;9.90;99.90
7155;DHT22;3619;53.784;10.440;2023-04-25T13:33:21;10.00;99.90
7155;DHT22;3619;53.784;10.440;2023-04-25T13:35:49;10.00;99.90
7155;DHT22;3619;53.784;10.440;2023-04-25T13:38:20;10.20;99.90
7155;DHT22;3619;53.784;10.440;2023-04-25T13:40:49;10.20;99.90
7155;DHT22;3619;53.784;10.440;2023-04-25T13:43:18;10.80;99.90
7155;DHT22;3619;53.784;10.440;2023-04-25T13:45:45;10.60;99.90
7155;DHT22;3619;53.784;10.440;2023-04-25T13:48:11;10.80;99.90
7155;DHT22;3619;53.784;10.440;2023-04-25T13:50:38;10.70;99.90
7155;DHT22;3619;53.784;10.440;2023-04-25T13:53:05;10.30;99.90
7155;DHT22;3619;53.784;10.440;2023-04-25T13:55:33;10.00;99.90
7155;DHT22;3619;53.784;10.440;2023-04-25T13:58:02;9.80;99.90
7155;DHT22;3619;53.784;10.440;2023-04-25T14:00:34;9.60;99.90
7155;DHT22;3619;53.784;10.440;2023-04-25T14:03:00;9.40;99.90
7155;DHT22;3619;53.784;10.440;2023-04-25T14:05:30;9.40;99.90
7155;DHT22;3619;53.784;10.440;2023-04-25T14:07:57;9.80;99.90
7155;DHT22;3619;53.784;10.440;2023-04-25T14:10:25;10.30;99.90
7155;DHT22;3619;53.784;10.440;2023-04-25T14:12:52;10.60;99.90
7155;DHT22;3619;53.784;10.440;2023-04-25T14:15:22;10.70;99.90
7155;DHT22;3619;53.784;10.440;2023-04-25T14:17:51;10.50;99.90
7155;DHT22;3619;53.784;10.440;2023-04-25T14:20:20;10.30;99.90
7155;DHT22;3619;53.784;10.440;2023-04-25T14:22:51;10.20;99.90
7155;DHT22;3619;53.784;10.440;2023-04-25T14:25:19;10.00;99.90
7155;DHT22;3619;53.784;10.440;2023-04-25T14:27:46;9.80;99.90
7155;DHT22;3619;53.784;10.440;2023-04-25T14:30:19;9.20;99.90
7155;DHT22;3619;53.784;10.440;2023-04-25T14:32:48;8.40;99.90
7155;DHT22;3619;53.784;10.440;2023-04-25T14:35:20;7.40;99.90
7155;DHT22;3619;53.784;10.440;2023-04-25T14:37:50;7.00;99.90
7155;DHT22;3619;53.784;10.440;2023-04-25T14:40:16;6.60;99.90
7155;DHT22;3619;53.784;10.440;2023-04-25T14:42:43;6.60;99.90
7155;DHT22;3619;53.784;10.440;2023-04-25T14:45:11;6.70;99.90
7155;DHT22;3619;53.784;10.440;2023-04-25T14:47:38;6.60;99.90
7155;DHT22;3619;53.784;10.440;2023-04-25T14:50:08;6.60;99.90
7155;DHT22;3619;53.784;10.440;2023-04-25T14:52:35;6.90;99.90
7155;DHT22;3619;53.784;10.440;2023-04-25T14:55:02;6.90;99.90
7155;DHT22;3619;53.784;10.440;2023-04-25T14:57:30;6.80;99.90
7155;DHT22;3619;53.784;10.440;2023-04-25T14:59:57;6.90;99.90
7155;DHT22;3619;53.784;10.440;2023-04-25T15:02:24;6.80;99.90
7155;DHT22;3619;53.784;10.440;2023-04-25T15:04:51;6.70;99.90
7155;DHT22;3619;53.784;10.440;2023-04-25T15:07:19;6.60;99.90
7155;DHT22;3619;53.784;10.440;2023-04-25T15:09:47;6.20;99.90
7155;DHT22;3619;53.784;10.440;2023-04-25T15:12:14;5.80;99.90
7155;DHT22;3619;53.784;10.440;2023-04-25T15:14:41;5.60;99.90
7155;DHT22;3619;53.784;10.440;2023-04-25T15:17:08;5.50;99.90
7155;DHT22;3619;53.784;10.440;2023-04-25T15:19:34;5.70;99.90
7155;DHT22;3619;53.784;10.440;2023-04-25T15:22:02;5.90;99.90
7155;DHT22;3619;53.784;10.440;2023-04-25T15:24:30;6.20;99.90
7155;DHT22;3619;53.784;10.440;2023-04-25T15:26:57;6.50;99.90
7155;DHT22;3619;53.784;10.440;2023-04-25T15:29:23;7.00;99.90
7155;DHT22;3619;53.784;10.440;2023-04-25T15:31:51;7.60;99.90
7155;DHT22;3619;53.784;10.440;2023-04-25T15:34:18;8.00;99.90
7155;DHT22;3619;53.784;10.440;2023-04-25T15:36:45;8.20;99.90
7155;DHT22;3619;53.784;10.440;2023-04-25T15:39:11;8.40;99.90
7155;DHT22;3619;53.784;10.440;2023-04-25T15:41:40;8.60;99.90
7155;DHT22;3619;53.784;10.440;2023-04-25T15:44:07;8.70;99.90
7155;DHT22;3619;53.784;10.440;2023-04-25T15:46:35;8.90;99.90
7155;DHT22;3619;53.784;10.440;2023-04-25T15:49:02;9.10;99.90
7155;DHT22;3619;53.784;10.440;2023-04-25T15:51:29;9.10;99.90
7155;DHT22;3619;53.784;10.440;2023-04-25T15:53:56;9.10;99.90
7155;DHT22;3619;53.784;10.440;2023-04-25T15:56:23;9.20;99.90
7155;DHT22;3619;53.784;10.440;2023-04-25T15:58:52;9.30;99.90
7155;DHT22;3619;53.784;10.440;2023-04-25T16:01:19;9.10;99.90
7155;DHT22;3619;53.784;10.440;2023-04-25T16:03:49;8.50;99.90